sensor_id;sensor_type;location;lat;lon;timestamp;P1;durP1;ratioP1;P2;durP2;ratioP2
42864;SDS011;28511;42.680;23.252;2022-07-06T00:01:37;22.55;;;15.02;;
42864;SDS011;28511;42.680;23.252;2022-07-06T00:04:04;23.70;;;14.98;;
42864;SDS011;28511;42.680;23.252;2022-07-06T00:06:30;20.75;;;15.13;;
42864;SDS011;28511;42.680;23.252;2022-07-06T00:08:56;23.42;;;15.88;;
42864;SDS011;28511;42.680;23.252;2022-07-06T00:11:22;25.50;;;16.05;;
42864;SDS011;28511;42.680;23.252;2022-07-06T00:13:47;22.20;;;15.05;;
42864;SDS011;28511;42.680;23.252;2022-07-06T00:16:13;22.75;;;16.13;;
42864;SDS011;28511;42.680;23.252;2022-07-06T00:18:38;24.00;;;14.82;;
42864;SDS011;28511;42.680;23.252;2022-07-06T00:21:04;25.90;;;15.80;;
42864;SDS011;28511;42.680;23.252;2022-07-06T00:23:29;29.98;;;16.60;;
42864;SDS011;28511;42.680;23.252;2022-07-06T00:25:55;22.98;;;14.68;;
42864;SDS011;28511;42.680;23.252;2022-07-06T00:28:20;25.90;;;15.60;;
42864;SDS011;28511;42.680;23.252;2022-07-06T00:30:52;22.75;;;16.05;;
42864;SDS011;28511;42.680;23.252;2022-07-06T00:33:17;23.63;;;14.68;;
42864;SDS011;28511;42.680;23.252;2022-07-06T00:35:43;20.45;;;14.63;;
42864;SDS011;28511;42.680;23.252;2022-07-06T00:38:19;22.60;;;14.90;;
42864;SDS011;28511;42.680;23.252;2022-07-06T00:40:44;18.42;;;12.95;;
42864;SDS011;28511;42.680;23.252;2022-07-06T00:43:09;22.90;;;15.17;;
42864;SDS011;28511;42.680;23.252;2022-07-06T00:45:36;24.02;;;15.25;;
42864;SDS011;28511;42.680;23.252;2022-07-06T00:48:02;24.27;;;17.17;;
42864;SDS011;28511;42.680;23.252;2022-07-06T00:50:27;23.05;;;14.73;;
42864;SDS011;28511;42.680;23.252;2022-07-06T00:52:54;24.65;;;15.68;;
42864;SDS011;28511;42.680;23.252;2022-07-06T00:55:24;28.38;;;16.33;;
42864;SDS011;28511;42.680;23.252;2022-07-06T00:57:50;21.88;;;16.15;;
42864;SDS011;28511;42.680;23.252;2022-07-06T01:00:18;26.75;;;16.40;;
42864;SDS011;28511;42.680;23.252;2022-07-06T01:02:45;25.10;;;16.30;;
42864;SDS011;28511;42.680;23.252;2022-07-06T01:05:11;24.65;;;17.80;;
42864;SDS011;28511;42.680;23.252;2022-07-06T01:07:37;29.25;;;18.75;;
42864;SDS011;28511;42.680;23.252;2022-07-06T01:10:04;27.92;;;17.98;;
42864;SDS011;28511;42.680;23.252;2022-07-06T01:12:30;33.20;;;19.08;;
42864;SDS011;28511;42.680;23.252;2022-07-06T01:14:56;28.38;;;17.80;;
42864;SDS011;28511;42.680;23.252;2022-07-06T01:17:22;25.10;;;17.45;;
42864;SDS011;28511;42.680;23.252;2022-07-06T01:19:47;27.05;;;17.52;;
42864;SDS011;28511;42.680;23.252;2022-07-06T01:22:13;28.52;;;18.45;;
42864;SDS011;28511;42.680;23.252;2022-07-06T01:24:38;26.67;;;17.88;;
42864;SDS011;28511;42.680;23.252;2022-07-06T01:27:05;31.60;;;18.38;;
42864;SDS011;28511;42.680;23.252;2022-07-06T01:29:34;27.58;;;19.13;;
42864;SDS011;28511;42.680;23.252;2022-07-06T01:32:01;27.52;;;18.67;;
42864;SDS011;28511;42.680;23.252;2022-07-06T01:34:26;23.08;;;16.73;;
42864;SDS011;28511;42.680;23.252;2022-07-06T01:39:20;26.50;;;17.92;;
42864;SDS011;28511;42.680;23.252;2022-07-06T01:41:46;25.23;;;16.75;;
42864;SDS011;28511;42.680;23.252;2022-07-06T01:44:12;24.65;;;15.70;;
42864;SDS011;28511;42.680;23.252;2022-07-06T01:46:39;23.20;;;15.50;;
42864;SDS011;28511;42.680;23.252;2022-07-06T01:49:05;22.35;;;15.07;;
42864;SDS011;28511;42.680;23.252;2022-07-06T01:51:31;27.00;;;16.73;;
42864;SDS011;28511;42.680;23.252;2022-07-06T01:53:59;24.27;;;15.30;;
42864;SDS011;28511;42.680;23.252;2022-07-06T01:56:25;25.35;;;16.35;;
42864;SDS011;28511;42.680;23.252;2022-07-06T01:58:53;22.85;;;15.30;;
42864;SDS011;28511;42.680;23.252;2022-07-06T02:03:47;20.98;;;14.60;;
42864;SDS011;28511;42.680;23.252;2022-07-06T02:06:12;22.50;;;14.48;;
42864;SDS011;28511;42.680;23.252;2022-07-06T02:08:39;21.35;;;13.90;;
42864;SDS011;28511;42.680;23.252;2022-07-06T02:11:06;18.63;;;13.23;;
42864;SDS011;28511;42.680;23.252;2022-07-06T02:13:31;19.92;;;12.98;;
42864;SDS011;28511;42.680;23.252;2022-07-06T02:15:57;20.83;;;12.88;;
42864;SDS011;28511;42.680;23.252;2022-07-06T02:18:22;23.85;;;13.30;;
42864;SDS011;28511;42.680;23.252;2022-07-06T02:20:49;16.90;;;11.07;;
42864;SDS011;28511;42.680;23.252;2022-07-06T02:23:15;16.95;;;11.45;;
42864;SDS011;28511;42.680;23.252;2022-07-06T02:25:40;17.30;;;11.77;;
42864;SDS011;28511;42.680;23.252;2022-07-06T02:28:06;17.77;;;11.05;;
42864;SDS011;28511;42.680;23.252;2022-07-06T02:30:31;18.92;;;11.85;;
42864;SDS011;28511;42.680;23.252;2022-07-06T02:32:57;18.52;;;11.90;;
42864;SDS011;28511;42.680;23.252;2022-07-06T02:35:24;19.67;;;12.35;;
42864;SDS011;28511;42.680;23.252;2022-07-06T02:37:49;19.98;;;13.20;;
42864;SDS011;28511;42.680;23.252;2022-07-06T02:40:14;20.67;;;14.23;;
42864;SDS011;28511;42.680;23.252;2022-07-06T02:42:40;21.55;;;13.73;;
42864;SDS011;28511;42.680;23.252;2022-07-06T02:45:06;21.58;;;15.57;;
42864;SDS011;28511;42.680;23.252;2022-07-06T02:47:31;20.40;;;14.10;;
42864;SDS011;28511;42.680;23.252;2022-07-06T02:49:58;23.20;;;15.52;;
42864;SDS011;28511;42.680;23.252;2022-07-06T02:52:23;22.60;;;16.23;;
42864;SDS011;28511;42.680;23.252;2022-07-06T02:54:52;23.55;;;15.82;;
42864;SDS011;28511;42.680;23.252;2022-07-06T02:57:19;23.40;;;15.77;;
42864;SDS011;28511;42.680;23.252;2022-07-06T02:59:45;21.35;;;14.57;;
42864;SDS011;28511;42.680;23.252;2022-07-06T03:02:11;21.73;;;14.07;;
42864;SDS011;28511;42.680;23.252;2022-07-06T03:04:36;19.52;;;12.68;;
42864;SDS011;28511;42.680;23.252;2022-07-06T03:07:04;18.70;;;12.55;;
42864;SDS011;28511;42.680;23.252;2022-07-06T03:09:31;21.50;;;12.75;;
42864;SDS011;28511;42.680;23.252;2022-07-06T03:11:57;17.52;;;12.00;;
42864;SDS011;28511;42.680;23.252;2022-07-06T03:14:23;18.10;;;11.57;;
42864;SDS011;28511;42.680;23.252;2022-07-06T03:16:53;17.98;;;11.85;;
42864;SDS011;28511;42.680;23.252;2022-07-06T03:19:20;14.88;;;10.45;;
42864;SDS011;28511;42.680;23.252;2022-07-06T03:21:47;15.68;;;10.38;;
42864;SDS011;28511;42.680;23.252;2022-07-06T03:24:19;14.25;;;9.25;;
42864;SDS011;28511;42.680;23.252;2022-07-06T03:29:20;14.80;;;8.52;;
42864;SDS011;28511;42.680;23.252;2022-07-06T03:31:46;14.82;;;8.57;;
42864;SDS011;28511;42.680;23.252;2022-07-06T03:34:21;13.27;;;7.50;;
42864;SDS011;28511;42.680;23.252;2022-07-06T03:39:25;13.93;;;7.70;;
42864;SDS011;28511;42.680;23.252;2022-07-06T03:41:52;15.18;;;8.05;;
42864;SDS011;28511;42.680;23.252;2022-07-06T03:44:17;10.05;;;6.53;;
42864;SDS011;28511;42.680;23.252;2022-07-06T03:46:44;12.02;;;6.60;;
42864;SDS011;28511;42.680;23.252;2022-07-06T03:51:40;10.48;;;6.22;;
42864;SDS011;28511;42.680;23.252;2022-07-06T03:54:06;10.30;;;5.35;;
42864;SDS011;28511;42.680;23.252;2022-07-06T03:56:32;11.30;;;6.10;;
42864;SDS011;28511;42.680;23.252;2022-07-06T03:59:05;12.60;;;5.47;;
42864;SDS011;28511;42.680;23.252;2022-07-06T04:01:30;7.97;;;4.75;;
42864;SDS011;28511;42.680;23.252;2022-07-06T04:03:56;11.95;;;5.57;;
42864;SDS011;28511;42.680;23.252;2022-07-06T04:06:23;9.00;;;4.95;;
42864;SDS011;28511;42.680;23.252;2022-07-06T04:08:51;8.75;;;5.70;;
42864;SDS011;28511;42.680;23.252;2022-07-06T04:11:16;7.90;;;4.50;;
42864;SDS011;28511;42.680;23.252;2022-07-06T04:13:42;8.38;;;4.63;;
42864;SDS011;28511;42.680;23.252;2022-07-06T04:16:08;10.00;;;5.28;;
42864;SDS011;28511;42.680;23.252;2022-07-06T04:18:36;12.98;;;6.22;;
42864;SDS011;28511;42.680;23.252;2022-07-06T04:21:02;9.05;;;5.20;;
42864;SDS011;28511;42.680;23.252;2022-07-06T04:26:11;12.23;;;5.20;;
42864;SDS011;28511;42.680;23.252;2022-07-06T04:28:37;10.00;;;4.60;;
42864;SDS011;28511;42.680;23.252;2022-07-06T04:31:02;9.55;;;5.28;;
42864;SDS011;28511;42.680;23.252;2022-07-06T04:33:28;8.00;;;5.13;;
42864;SDS011;28511;42.680;23.252;2022-07-06T04:35:53;9.40;;;5.32;;
42864;SDS011;28511;42.680;23.252;2022-07-06T04:38:18;13.23;;;6.45;;
42864;SDS011;28511;42.680;23.252;2022-07-06T04:40:44;11.02;;;6.32;;
42864;SDS011;28511;42.680;23.252;2022-07-06T04:43:11;10.50;;;6.35;;
42864;SDS011;28511;42.680;23.252;2022-07-06T04:45:37;14.48;;;7.57;;
42864;SDS011;28511;42.680;23.252;2022-07-06T04:48:03;16.23;;;8.98;;
42864;SDS011;28511;42.680;23.252;2022-07-06T04:50:28;13.85;;;8.73;;
42864;SDS011;28511;42.680;23.252;2022-07-06T04:52:55;17.60;;;11.25;;
42864;SDS011;28511;42.680;23.252;2022-07-06T04:55:20;16.02;;;10.18;;
42864;SDS011;28511;42.680;23.252;2022-07-06T04:57:46;19.85;;;10.45;;
42864;SDS011;28511;42.680;23.252;2022-07-06T05:00:11;16.95;;;10.43;;
42864;SDS011;28511;42.680;23.252;2022-07-06T05:02:37;22.00;;;9.98;;
42864;SDS011;28511;42.680;23.252;2022-07-06T05:05:03;17.88;;;10.40;;
42864;SDS011;28511;42.680;23.252;2022-07-06T05:07:30;17.05;;;10.18;;
42864;SDS011;28511;42.680;23.252;2022-07-06T05:09:59;21.75;;;11.40;;
42864;SDS011;28511;42.680;23.252;2022-07-06T05:12:25;20.25;;;10.95;;
42864;SDS011;28511;42.680;23.252;2022-07-06T05:14:51;20.40;;;11.52;;
42864;SDS011;28511;42.680;23.252;2022-07-06T05:17:16;18.80;;;11.63;;
42864;SDS011;28511;42.680;23.252;2022-07-06T05:19:43;21.52;;;11.27;;
42864;SDS011;28511;42.680;23.252;2022-07-06T05:22:08;18.30;;;10.68;;
42864;SDS011;28511;42.680;23.252;2022-07-06T05:24:35;19.27;;;11.95;;
42864;SDS011;28511;42.680;23.252;2022-07-06T05:27:04;18.10;;;10.00;;
42864;SDS011;28511;42.680;23.252;2022-07-06T05:31:56;19.10;;;9.98;;
42864;SDS011;28511;42.680;23.252;2022-07-06T05:34:23;15.52;;;10.23;;
42864;SDS011;28511;42.680;23.252;2022-07-06T05:36:48;17.98;;;9.18;;
42864;SDS011;28511;42.680;23.252;2022-07-06T05:39:14;15.30;;;8.85;;
42864;SDS011;28511;42.680;23.252;2022-07-06T05:41:44;16.25;;;9.00;;
42864;SDS011;28511;42.680;23.252;2022-07-06T05:44:09;16.35;;;9.75;;
42864;SDS011;28511;42.680;23.252;2022-07-06T05:46:35;14.10;;;8.68;;
42864;SDS011;28511;42.680;23.252;2022-07-06T05:49:01;16.38;;;8.50;;
42864;SDS011;28511;42.680;23.252;2022-07-06T05:51:45;16.40;;;9.27;;
42864;SDS011;28511;42.680;23.252;2022-07-06T05:54:11;15.25;;;9.32;;
42864;SDS011;28511;42.680;23.252;2022-07-06T05:56:36;15.98;;;9.10;;
42864;SDS011;28511;42.680;23.252;2022-07-06T05:59:02;14.10;;;8.48;;
42864;SDS011;28511;42.680;23.252;2022-07-06T06:01:27;16.23;;;9.48;;
42864;SDS011;28511;42.680;23.252;2022-07-06T06:03:53;16.50;;;9.90;;
42864;SDS011;28511;42.680;23.252;2022-07-06T06:06:18;15.45;;;8.90;;
42864;SDS011;28511;42.680;23.252;2022-07-06T06:08:44;15.95;;;9.65;;
42864;SDS011;28511;42.680;23.252;2022-07-06T06:11:09;17.35;;;8.73;;
42864;SDS011;28511;42.680;23.252;2022-07-06T06:13:35;16.42;;;9.80;;
42864;SDS011;28511;42.680;23.252;2022-07-06T06:16:00;14.73;;;9.52;;
42864;SDS011;28511;42.680;23.252;2022-07-06T06:18:25;16.42;;;9.27;;
42864;SDS011;28511;42.680;23.252;2022-07-06T06:20:51;16.25;;;9.20;;
42864;SDS011;28511;42.680;23.252;2022-07-06T06:23:16;15.95;;;9.07;;
42864;SDS011;28511;42.680;23.252;2022-07-06T06:25:41;18.17;;;9.00;;
42864;SDS011;28511;42.680;23.252;2022-07-06T06:28:08;18.67;;;10.88;;
42864;SDS011;28511;42.680;23.252;2022-07-06T06:30:34;17.40;;;10.98;;
42864;SDS011;28511;42.680;23.252;2022-07-06T06:35:32;20.17;;;11.82;;
42864;SDS011;28511;42.680;23.252;2022-07-06T06:37:57;16.83;;;11.05;;
42864;SDS011;28511;42.680;23.252;2022-07-06T06:40:23;20.48;;;11.13;;
42864;SDS011;28511;42.680;23.252;2022-07-06T06:42:48;16.83;;;11.75;;
42864;SDS011;28511;42.680;23.252;2022-07-06T06:45:13;16.57;;;10.33;;
42864;SDS011;28511;42.680;23.252;2022-07-06T06:47:39;21.67;;;10.63;;
42864;SDS011;28511;42.680;23.252;2022-07-06T06:50:05;16.25;;;10.90;;
42864;SDS011;28511;42.680;23.252;2022-07-06T06:52:31;14.32;;;9.68;;
42864;SDS011;28511;42.680;23.252;2022-07-06T06:54:56;17.90;;;11.00;;
42864;SDS011;28511;42.680;23.252;2022-07-06T06:57:21;17.87;;;11.77;;
42864;SDS011;28511;42.680;23.252;2022-07-06T06:59:46;17.27;;;11.43;;
42864;SDS011;28511;42.680;23.252;2022-07-06T07:02:12;18.17;;;12.23;;
42864;SDS011;28511;42.680;23.252;2022-07-06T07:04:37;17.43;;;12.40;;
42864;SDS011;28511;42.680;23.252;2022-07-06T07:07:02;20.80;;;13.10;;
42864;SDS011;28511;42.680;23.252;2022-07-06T07:09:29;20.98;;;13.43;;
42864;SDS011;28511;42.680;23.252;2022-07-06T07:11:54;18.77;;;13.07;;
42864;SDS011;28511;42.680;23.252;2022-07-06T07:14:20;21.73;;;13.63;;
42864;SDS011;28511;42.680;23.252;2022-07-06T07:16:45;19.65;;;12.32;;
42864;SDS011;28511;42.680;23.252;2022-07-06T07:19:10;22.45;;;13.70;;
42864;SDS011;28511;42.680;23.252;2022-07-06T07:21:36;17.30;;;12.43;;
42864;SDS011;28511;42.680;23.252;2022-07-06T07:24:01;19.23;;;13.27;;
42864;SDS011;28511;42.680;23.252;2022-07-06T07:26:26;19.58;;;13.50;;
42864;SDS011;28511;42.680;23.252;2022-07-06T07:28:53;23.17;;;13.87;;
42864;SDS011;28511;42.680;23.252;2022-07-06T07:31:18;19.35;;;14.38;;
42864;SDS011;28511;42.680;23.252;2022-07-06T07:33:43;18.93;;;13.53;;
42864;SDS011;28511;42.680;23.252;2022-07-06T07:36:08;18.17;;;14.30;;
42864;SDS011;28511;42.680;23.252;2022-07-06T07:38:34;19.83;;;13.55;;
42864;SDS011;28511;42.680;23.252;2022-07-06T07:40:59;20.73;;;13.17;;
42864;SDS011;28511;42.680;23.252;2022-07-06T07:43:24;22.48;;;15.43;;
42864;SDS011;28511;42.680;23.252;2022-07-06T07:45:50;19.42;;;13.13;;
42864;SDS011;28511;42.680;23.252;2022-07-06T07:48:15;24.95;;;14.10;;
42864;SDS011;28511;42.680;23.252;2022-07-06T07:50:41;17.70;;;12.18;;
42864;SDS011;28511;42.680;23.252;2022-07-06T07:53:06;18.38;;;12.73;;
42864;SDS011;28511;42.680;23.252;2022-07-06T07:55:31;21.33;;;14.32;;
42864;SDS011;28511;42.680;23.252;2022-07-06T07:57:57;17.58;;;13.35;;
42864;SDS011;28511;42.680;23.252;2022-07-06T08:00:22;16.47;;;11.70;;
42864;SDS011;28511;42.680;23.252;2022-07-06T08:02:47;24.63;;;12.77;;
42864;SDS011;28511;42.680;23.252;2022-07-06T08:05:13;19.55;;;12.13;;
42864;SDS011;28511;42.680;23.252;2022-07-06T08:07:41;16.70;;;11.70;;
42864;SDS011;28511;42.680;23.252;2022-07-06T08:10:06;17.73;;;11.43;;
42864;SDS011;28511;42.680;23.252;2022-07-06T08:12:31;16.95;;;12.00;;
42864;SDS011;28511;42.680;23.252;2022-07-06T08:14:56;15.50;;;11.83;;
42864;SDS011;28511;42.680;23.252;2022-07-06T08:17:23;16.33;;;11.52;;
42864;SDS011;28511;42.680;23.252;2022-07-06T08:19:48;15.80;;;11.05;;
42864;SDS011;28511;42.680;23.252;2022-07-06T08:22:13;14.60;;;10.80;;
42864;SDS011;28511;42.680;23.252;2022-07-06T08:24:39;18.42;;;11.90;;
42864;SDS011;28511;42.680;23.252;2022-07-06T08:27:04;20.35;;;11.55;;
42864;SDS011;28511;42.680;23.252;2022-07-06T08:29:30;13.88;;;11.05;;
42864;SDS011;28511;42.680;23.252;2022-07-06T08:31:57;17.75;;;12.55;;
42864;SDS011;28511;42.680;23.252;2022-07-06T08:34:22;16.00;;;11.60;;
42864;SDS011;28511;42.680;23.252;2022-07-06T08:36:48;18.58;;;13.38;;
42864;SDS011;28511;42.680;23.252;2022-07-06T08:39:13;19.02;;;11.65;;
42864;SDS011;28511;42.680;23.252;2022-07-06T08:41:40;18.25;;;12.98;;
42864;SDS011;28511;42.680;23.252;2022-07-06T08:44:06;19.80;;;12.48;;
42864;SDS011;28511;42.680;23.252;2022-07-06T08:46:32;17.00;;;12.73;;
42864;SDS011;28511;42.680;23.252;2022-07-06T08:48:58;17.50;;;12.73;;
42864;SDS011;28511;42.680;23.252;2022-07-06T08:51:25;15.95;;;11.10;;
42864;SDS011;28511;42.680;23.252;2022-07-06T08:53:52;17.00;;;11.23;;
42864;SDS011;28511;42.680;23.252;2022-07-06T08:56:18;16.35;;;10.27;;
42864;SDS011;28511;42.680;23.252;2022-07-06T08:58:44;12.95;;;10.15;;
42864;SDS011;28511;42.680;23.252;2022-07-06T09:01:10;14.30;;;10.80;;
42864;SDS011;28511;42.680;23.252;2022-07-06T09:03:36;17.08;;;12.00;;
42864;SDS011;28511;42.680;23.252;2022-07-06T09:06:02;15.25;;;11.90;;
42864;SDS011;28511;42.680;23.252;2022-07-06T09:08:27;15.27;;;11.57;;
42864;SDS011;28511;42.680;23.252;2022-07-06T09:10:55;16.20;;;11.10;;
42864;SDS011;28511;42.680;23.252;2022-07-06T09:13:21;16.98;;;9.90;;
42864;SDS011;28511;42.680;23.252;2022-07-06T09:15:46;15.50;;;10.95;;
42864;SDS011;28511;42.680;23.252;2022-07-06T09:18:12;12.57;;;9.98;;
42864;SDS011;28511;42.680;23.252;2022-07-06T09:20:39;13.95;;;10.90;;
42864;SDS011;28511;42.680;23.252;2022-07-06T09:23:05;15.35;;;11.50;;
42864;SDS011;28511;42.680;23.252;2022-07-06T09:25:33;19.00;;;12.90;;
42864;SDS011;28511;42.680;23.252;2022-07-06T09:27:58;16.08;;;11.43;;
42864;SDS011;28511;42.680;23.252;2022-07-06T09:30:25;14.85;;;11.20;;
42864;SDS011;28511;42.680;23.252;2022-07-06T09:32:52;15.00;;;10.25;;
42864;SDS011;28511;42.680;23.252;2022-07-06T09:38:00;16.95;;;12.00;;
42864;SDS011;28511;42.680;23.252;2022-07-06T09:40:25;17.95;;;12.25;;
42864;SDS011;28511;42.680;23.252;2022-07-06T09:42:51;14.87;;;11.43;;
42864;SDS011;28511;42.680;23.252;2022-07-06T09:45:20;19.52;;;13.13;;
42864;SDS011;28511;42.680;23.252;2022-07-06T09:47:49;18.63;;;13.73;;
42864;SDS011;28511;42.680;23.252;2022-07-06T09:50:16;18.33;;;13.10;;
42864;SDS011;28511;42.680;23.252;2022-07-06T09:52:52;15.25;;;11.65;;
42864;SDS011;28511;42.680;23.252;2022-07-06T09:55:18;17.15;;;11.15;;
42864;SDS011;28511;42.680;23.252;2022-07-06T09:57:53;19.73;;;12.90;;
42864;SDS011;28511;42.680;23.252;2022-07-06T10:00:26;19.45;;;14.02;;
42864;SDS011;28511;42.680;23.252;2022-07-06T10:02:51;21.45;;;12.02;;
42864;SDS011;28511;42.680;23.252;2022-07-06T10:05:17;19.30;;;12.93;;
42864;SDS011;28511;42.680;23.252;2022-07-06T10:07:46;18.92;;;12.25;;
42864;SDS011;28511;42.680;23.252;2022-07-06T10:10:15;17.30;;;12.77;;
42864;SDS011;28511;42.680;23.252;2022-07-06T10:12:42;17.52;;;13.23;;
42864;SDS011;28511;42.680;23.252;2022-07-06T10:15:08;16.55;;;11.85;;
42864;SDS011;28511;42.680;23.252;2022-07-06T10:17:36;17.40;;;13.52;;
42864;SDS011;28511;42.680;23.252;2022-07-06T10:20:04;18.33;;;14.02;;
42864;SDS011;28511;42.680;23.252;2022-07-06T10:22:31;17.55;;;12.63;;
42864;SDS011;28511;42.680;23.252;2022-07-06T10:24:57;21.05;;;13.90;;
42864;SDS011;28511;42.680;23.252;2022-07-06T10:27:24;18.90;;;13.52;;
42864;SDS011;28511;42.680;23.252;2022-07-06T10:29:50;17.40;;;11.73;;
42864;SDS011;28511;42.680;23.252;2022-07-06T10:32:19;16.85;;;12.80;;
42864;SDS011;28511;42.680;23.252;2022-07-06T10:34:47;17.65;;;12.35;;
42864;SDS011;28511;42.680;23.252;2022-07-06T10:37:22;17.05;;;12.55;;
42864;SDS011;28511;42.680;23.252;2022-07-06T10:39:48;18.08;;;12.38;;
42864;SDS011;28511;42.680;23.252;2022-07-06T10:45:04;16.70;;;11.60;;
42864;SDS011;28511;42.680;23.252;2022-07-06T10:47:30;15.15;;;11.93;;
42864;SDS011;28511;42.680;23.252;2022-07-06T10:49:58;16.73;;;12.30;;
42864;SDS011;28511;42.680;23.252;2022-07-06T10:52:47;16.83;;;12.55;;
42864;SDS011;28511;42.680;23.252;2022-07-06T10:55:27;18.55;;;12.68;;
42864;SDS011;28511;42.680;23.252;2022-07-06T10:57:53;17.52;;;11.88;;
42864;SDS011;28511;42.680;23.252;2022-07-06T11:00:19;17.35;;;13.85;;
42864;SDS011;28511;42.680;23.252;2022-07-06T11:02:44;17.85;;;13.45;;
42864;SDS011;28511;42.680;23.252;2022-07-06T11:05:39;16.00;;;12.85;;
42864;SDS011;28511;42.680;23.252;2022-07-06T11:08:01;19.83;;;14.95;;
42864;SDS011;28511;42.680;23.252;2022-07-06T11:10:26;18.52;;;14.27;;
42864;SDS011;28511;42.680;23.252;2022-07-06T11:12:59;18.77;;;14.77;;
42864;SDS011;28511;42.680;23.252;2022-07-06T11:18:10;19.95;;;14.50;;
42864;SDS011;28511;42.680;23.252;2022-07-06T11:20:36;18.30;;;13.88;;
42864;SDS011;28511;42.680;23.252;2022-07-06T11:23:02;15.15;;;12.43;;
42864;SDS011;28511;42.680;23.252;2022-07-06T11:25:27;16.17;;;13.23;;
42864;SDS011;28511;42.680;23.252;2022-07-06T11:27:54;18.27;;;12.80;;
42864;SDS011;28511;42.680;23.252;2022-07-06T11:30:20;16.75;;;12.35;;
42864;SDS011;28511;42.680;23.252;2022-07-06T11:32:46;18.17;;;14.80;;
42864;SDS011;28511;42.680;23.252;2022-07-06T11:35:11;17.90;;;11.70;;
42864;SDS011;28511;42.680;23.252;2022-07-06T11:37:37;17.67;;;13.82;;
42864;SDS011;28511;42.680;23.252;2022-07-06T11:40:06;17.80;;;12.57;;
42864;SDS011;28511;42.680;23.252;2022-07-06T11:42:32;16.38;;;13.68;;
42864;SDS011;28511;42.680;23.252;2022-07-06T11:44:58;16.33;;;13.25;;
42864;SDS011;28511;42.680;23.252;2022-07-06T11:47:30;18.63;;;14.70;;
42864;SDS011;28511;42.680;23.252;2022-07-06T11:49:56;17.38;;;15.00;;
42864;SDS011;28511;42.680;23.252;2022-07-06T11:52:21;17.92;;;12.27;;
42864;SDS011;28511;42.680;23.252;2022-07-06T11:54:56;16.92;;;12.65;;
42864;SDS011;28511;42.680;23.252;2022-07-06T11:57:22;16.25;;;13.65;;
42864;SDS011;28511;42.680;23.252;2022-07-06T11:59:49;17.88;;;12.40;;
42864;SDS011;28511;42.680;23.252;2022-07-06T12:02:16;17.38;;;13.30;;
42864;SDS011;28511;42.680;23.252;2022-07-06T12:04:45;17.90;;;14.77;;
42864;SDS011;28511;42.680;23.252;2022-07-06T12:07:12;17.88;;;13.73;;
42864;SDS011;28511;42.680;23.252;2022-07-06T12:09:41;17.20;;;13.05;;
42864;SDS011;28511;42.680;23.252;2022-07-06T12:12:08;17.80;;;12.85;;
42864;SDS011;28511;42.680;23.252;2022-07-06T12:14:35;14.80;;;11.25;;
42864;SDS011;28511;42.680;23.252;2022-07-06T12:17:06;15.30;;;12.05;;
42864;SDS011;28511;42.680;23.252;2022-07-06T12:19:32;12.65;;;11.23;;
42864;SDS011;28511;42.680;23.252;2022-07-06T12:21:58;12.60;;;10.32;;
42864;SDS011;28511;42.680;23.252;2022-07-06T12:24:26;12.00;;;9.23;;
42864;SDS011;28511;42.680;23.252;2022-07-06T12:26:53;13.32;;;10.02;;
42864;SDS011;28511;42.680;23.252;2022-07-06T12:29:21;11.75;;;9.98;;
42864;SDS011;28511;42.680;23.252;2022-07-06T12:34:14;12.95;;;10.10;;
42864;SDS011;28511;42.680;23.252;2022-07-06T12:36:51;11.80;;;9.32;;
42864;SDS011;28511;42.680;23.252;2022-07-06T12:39:18;15.25;;;10.48;;
42864;SDS011;28511;42.680;23.252;2022-07-06T12:41:48;12.68;;;9.27;;
42864;SDS011;28511;42.680;23.252;2022-07-06T12:44:18;14.05;;;9.60;;
42864;SDS011;28511;42.680;23.252;2022-07-06T12:46:45;15.27;;;10.00;;
42864;SDS011;28511;42.680;23.252;2022-07-06T12:49:15;12.55;;;10.10;;
42864;SDS011;28511;42.680;23.252;2022-07-06T12:54:17;13.68;;;9.00;;
42864;SDS011;28511;42.680;23.252;2022-07-06T12:57:16;11.07;;;8.38;;
42864;SDS011;28511;42.680;23.252;2022-07-06T12:59:35;10.38;;;7.70;;
42864;SDS011;28511;42.680;23.252;2022-07-06T13:02:00;11.73;;;7.60;;
42864;SDS011;28511;42.680;23.252;2022-07-06T13:04:27;8.52;;;6.70;;
42864;SDS011;28511;42.680;23.252;2022-07-06T13:06:53;7.95;;;6.45;;
42864;SDS011;28511;42.680;23.252;2022-07-06T13:09:19;10.18;;;6.95;;
42864;SDS011;28511;42.680;23.252;2022-07-06T13:11:45;8.35;;;6.60;;
42864;SDS011;28511;42.680;23.252;2022-07-06T13:14:11;11.30;;;6.40;;
42864;SDS011;28511;42.680;23.252;2022-07-06T13:16:37;8.68;;;6.50;;
42864;SDS011;28511;42.680;23.252;2022-07-06T13:19:02;8.20;;;5.80;;
42864;SDS011;28511;42.680;23.252;2022-07-06T13:21:28;8.43;;;5.72;;
42864;SDS011;28511;42.680;23.252;2022-07-06T13:23:53;8.52;;;5.88;;
42864;SDS011;28511;42.680;23.252;2022-07-06T13:26:19;6.47;;;5.20;;
42864;SDS011;28511;42.680;23.252;2022-07-06T13:28:44;6.30;;;5.45;;
42864;SDS011;28511;42.680;23.252;2022-07-06T13:31:10;8.75;;;5.97;;
42864;SDS011;28511;42.680;23.252;2022-07-06T13:33:36;7.22;;;5.57;;
42864;SDS011;28511;42.680;23.252;2022-07-06T13:36:01;10.70;;;5.22;;
42864;SDS011;28511;42.680;23.252;2022-07-06T13:38:27;6.05;;;3.97;;
42864;SDS011;28511;42.680;23.252;2022-07-06T13:40:52;4.20;;;3.80;;
42864;SDS011;28511;42.680;23.252;2022-07-06T13:43:18;4.13;;;3.30;;
42864;SDS011;28511;42.680;23.252;2022-07-06T13:45:43;5.65;;;3.63;;
42864;SDS011;28511;42.680;23.252;2022-07-06T13:48:09;6.57;;;3.58;;
42864;SDS011;28511;42.680;23.252;2022-07-06T13:50:35;3.65;;;2.67;;
42864;SDS011;28511;42.680;23.252;2022-07-06T13:53:00;3.90;;;3.50;;
42864;SDS011;28511;42.680;23.252;2022-07-06T13:55:27;5.28;;;3.00;;
42864;SDS011;28511;42.680;23.252;2022-07-06T13:57:52;8.55;;;3.35;;
42864;SDS011;28511;42.680;23.252;2022-07-06T14:00:18;8.90;;;3.40;;
42864;SDS011;28511;42.680;23.252;2022-07-06T14:02:44;3.85;;;3.33;;
42864;SDS011;28511;42.680;23.252;2022-07-06T14:05:09;4.55;;;3.15;;
42864;SDS011;28511;42.680;23.252;2022-07-06T14:07:35;4.82;;;3.42;;
42864;SDS011;28511;42.680;23.252;2022-07-06T14:10:00;4.88;;;3.35;;
42864;SDS011;28511;42.680;23.252;2022-07-06T14:12:26;3.83;;;3.20;;
42864;SDS011;28511;42.680;23.252;2022-07-06T14:14:52;4.50;;;3.33;;
42864;SDS011;28511;42.680;23.252;2022-07-06T14:17:19;5.72;;;3.10;;
42864;SDS011;28511;42.680;23.252;2022-07-06T14:19:44;3.95;;;3.55;;
42864;SDS011;28511;42.680;23.252;2022-07-06T14:22:10;6.97;;;3.47;;
42864;SDS011;28511;42.680;23.252;2022-07-06T14:24:35;5.40;;;4.10;;
42864;SDS011;28511;42.680;23.252;2022-07-06T14:27:01;4.43;;;3.50;;
42864;SDS011;28511;42.680;23.252;2022-07-06T14:29:26;4.20;;;3.40;;
42864;SDS011;28511;42.680;23.252;2022-07-06T14:31:52;4.65;;;3.58;;
42864;SDS011;28511;42.680;23.252;2022-07-06T14:34:17;4.63;;;3.60;;
42864;SDS011;28511;42.680;23.252;2022-07-06T14:36:42;4.22;;;3.22;;
42864;SDS011;28511;42.680;23.252;2022-07-06T14:39:08;5.55;;;3.60;;
42864;SDS011;28511;42.680;23.252;2022-07-06T14:41:34;3.50;;;3.10;;
42864;SDS011;28511;42.680;23.252;2022-07-06T14:44:00;4.10;;;3.20;;